sensor_id;sensor_type;location;lat;lon;timestamp;pressure;altitude;pressure_sealevel;temperature;humidity
21664;BME280;10993;52.510;13.456;2022-12-16T00:03:02;-25945.44;;;-5.95;100.00
21664;BME280;10993;52.510;13.456;2022-12-16T00:08:03;-25942.38;;;-6.05;100.00
21664;BME280;10993;52.510;13.456;2022-12-16T00:13:05;-25945.09;;;-5.96;100.00
21664;BME280;10993;52.510;13.456;2022-12-16T00:18:05;-25950.72;;;-5.78;100.00
21664;BME280;10993;52.510;13.456;2022-12-16T00:23:05;-25945.75;;;-5.94;100.00
21664;BME280;10993;52.510;13.456;2022-12-16T00:28:07;-25947.84;;;-5.87;100.00
21664;BME280;10993;52.510;13.456;2022-12-16T00:33:08;-25948.00;;;-5.87;100.00
21664;BME280;10993;52.510;13.456;2022-12-16T00:38:08;-25941.09;;;-6.09;100.00
21664;BME280;10993;52.510;13.456;2022-12-16T00:43:10;-25944.31;;;-5.98;100.00
21664;BME280;10993;52.510;13.456;2022-12-16T00:48:11;-25940.63;;;-6.10;100.00
21664;BME280;10993;52.510;13.456;2022-12-16T00:53:12;-25940.44;;;-6.11;100.00
21664;BME280;10993;52.510;13.456;2022-12-16T00:58:13;-25935.31;;;-6.27;100.00
21664;BME280;10993;52.510;13.456;2022-12-16T01:03:14;-25935.47;;;-6.27;100.00
21664;BME280;10993;52.510;13.456;2022-12-16T01:08:14;-25936.28;;;-6.24;100.00
21664;BME280;10993;52.510;13.456;2022-12-16T01:13:16;-25936.44;;;-6.24;100.00
21664;BME280;10993;52.510;13.456;2022-12-16T01:18:16;-25937.88;;;-6.19;100.00
21664;BME280;10993;52.510;13.456;2022-12-16T01:23:17;-25939.00;;;-6.15;100.00
21664;BME280;10993;52.510;13.456;2022-12-16T01:28:19;-25937.72;;;-6.19;100.00
21664;BME280;10993;52.510;13.456;2022-12-16T01:33:19;-25936.44;;;-6.24;100.00
21664;BME280;10993;52.510;13.456;2022-12-16T01:38:19;-25932.09;;;-6.38;100.00
21664;BME280;10993;52.510;13.456;2022-12-16T01:43:24;-25936.13;;;-6.25;100.00
21664;BME280;10993;52.510;13.456;2022-12-16T01:48:32;-25933.53;;;-6.33;100.00
21664;BME280;10993;52.510;13.456;2022-12-16T01:53:35;-25933.53;;;-6.33;100.00
21664;BME280;10993;52.510;13.456;2022-12-16T01:58:39;-25926.16;;;-6.57;100.00
21664;BME280;10993;52.510;13.456;2022-12-16T02:03:41;-25920.38;;;-6.75;100.00
21664;BME280;10993;52.510;13.456;2022-12-16T02:08:42;-25929.38;;;-6.46;100.00
21664;BME280;10993;52.510;13.456;2022-12-16T02:13:55;-25930.00;;;-6.44;100.00
21664;BME280;10993;52.510;13.456;2022-12-16T02:19:09;-25928.72;;;-6.48;100.00
21664;BME280;10993;52.510;13.456;2022-12-16T02:24:34;-25935.63;;;-6.26;100.00
21664;BME280;10993;52.510;13.456;2022-12-16T02:30:00;-25927.13;;;-6.53;100.00
21664;BME280;10993;52.510;13.456;2022-12-16T02:35:08;-25928.09;;;-6.50;100.00
21664;BME280;10993;52.510;13.456;2022-12-16T02:40:15;-25928.56;;;-6.49;100.00
21664;BME280;10993;52.510;13.456;2022-12-16T02:45:20;-25928.09;;;-6.50;100.00
21664;BME280;10993;52.510;13.456;2022-12-16T02:50:29;-25923.59;;;-6.65;100.00
21664;BME280;10993;52.510;13.456;2022-12-16T02:55:40;-25933.72;;;-6.32;100.00
21664;BME280;10993;52.510;13.456;2022-12-16T03:00:51;-25928.09;;;-6.50;100.00
21664;BME280;10993;52.510;13.456;2022-12-16T03:05:58;-25933.53;;;-6.33;100.00
21664;BME280;10993;52.510;13.456;2022-12-16T03:11:02;-25928.88;;;-6.48;100.00
21664;BME280;10993;52.510;13.456;2022-12-16T03:16:04;-25925.19;;;-6.60;100.00
21664;BME280;10993;52.510;13.456;2022-12-16T03:21:08;-25926.47;;;-6.56;100.00
21664;BME280;10993;52.510;13.456;2022-12-16T03:26:14;-25924.22;;;-6.63;100.00
21664;BME280;10993;52.510;13.456;2022-12-16T03:31:20;-25928.09;;;-6.50;100.00
21664;BME280;10993;52.510;13.456;2022-12-16T03:36:28;-25928.88;;;-6.48;100.00
21664;BME280;10993;52.510;13.456;2022-12-16T03:41:32;-25928.72;;;-6.48;100.00
21664;BME280;10993;52.510;13.456;2022-12-16T03:46:33;-25929.84;;;-6.45;100.00
21664;BME280;10993;52.510;13.456;2022-12-16T03:51:35;-25928.41;;;-6.49;100.00
21664;BME280;10993;52.510;13.456;2022-12-16T03:56:35;-25929.22;;;-6.47;100.00
21664;BME280;10993;52.510;13.456;2022-12-16T04:01:36;-25928.72;;;-6.48;100.00
21664;BME280;10993;52.510;13.456;2022-12-16T04:06:38;-25933.06;;;-6.34;100.00
21664;BME280;10993;52.510;13.456;2022-12-16T04:11:38;-25931.31;;;-6.40;100.00
21664;BME280;10993;52.510;13.456;2022-12-16T04:16:57;-25933.88;;;-6.32;100.00
21664;BME280;10993;52.510;13.456;2022-12-16T04:22:20;-25933.06;;;-6.34;100.00
21664;BME280;10993;52.510;13.456;2022-12-16T04:27:40;-25934.19;;;-6.31;100.00
21664;BME280;10993;52.510;13.456;2022-12-16T04:32:47;-25934.19;;;-6.31;100.00
21664;BME280;10993;52.510;13.456;2022-12-16T04:38:09;-25934.84;;;-6.29;100.00
21664;BME280;10993;52.510;13.456;2022-12-16T04:43:28;-25937.25;;;-6.21;100.00
21664;BME280;10993;52.510;13.456;2022-12-16T04:48:47;-25935.47;;;-6.27;100.00
21664;BME280;10993;52.510;13.456;2022-12-16T04:54:07;-25935.78;;;-6.26;100.00
21664;BME280;10993;52.510;13.456;2022-12-16T04:59:26;-25933.88;;;-6.32;100.00
21664;BME280;10993;52.510;13.456;2022-12-16T05:04:45;-25928.72;;;-6.48;100.00
21664;BME280;10993;52.510;13.456;2022-12-16T05:10:07;-25929.06;;;-6.47;100.00
21664;BME280;10993;52.510;13.456;2022-12-16T05:15:26;-25928.25;;;-6.50;100.00
21664;BME280;10993;52.510;13.456;2022-12-16T05:20:44;-25925.84;;;-6.58;100.00
21664;BME280;10993;52.510;13.456;2022-12-16T05:26:05;-25929.06;;;-6.47;100.00
21664;BME280;10993;52.510;13.456;2022-12-16T05:31:24;-25932.75;;;-6.35;100.00
21664;BME280;10993;52.510;13.456;2022-12-16T05:36:43;-25927.75;;;-6.51;100.00
21664;BME280;10993;52.510;13.456;2022-12-16T05:42:03;-25930.66;;;-6.42;100.00
21664;BME280;10993;52.510;13.456;2022-12-16T05:47:22;-25927.59;;;-6.52;100.00
21664;BME280;10993;52.510;13.456;2022-12-16T05:52:47;-25931.94;;;-6.38;100.00
21664;BME280;10993;52.510;13.456;2022-12-16T05:58:08;-25927.13;;;-6.53;100.00
21664;BME280;10993;52.510;13.456;2022-12-16T06:03:27;-25935.00;;;-6.28;100.00
21664;BME280;10993;52.510;13.456;2022-12-16T06:08:45;-25937.25;;;-6.21;100.00
21664;BME280;10993;52.510;13.456;2022-12-16T06:14:06;-25934.84;;;-6.29;100.00
21664;BME280;10993;52.510;13.456;2022-12-16T06:19:25;-25938.38;;;-6.17;100.00
21664;BME280;10993;52.510;13.456;2022-12-16T06:24:44;-25939.00;;;-6.15;100.00
21664;BME280;10993;52.510;13.456;2022-12-16T06:30:05;-25937.09;;;-6.22;100.00
21664;BME280;10993;52.510;13.456;2022-12-16T06:35:24;-25938.03;;;-6.18;100.00
21664;BME280;10993;52.510;13.456;2022-12-16T06:40:43;-25937.72;;;-6.19;100.00
21664;BME280;10993;52.510;13.456;2022-12-16T06:46:04;-25939.50;;;-6.14;100.00
21664;BME280;10993;52.510;13.456;2022-12-16T06:51:22;-25942.38;;;-6.05;100.00
21664;BME280;10993;52.510;13.456;2022-12-16T06:56:41;-25949.44;;;-5.82;100.00
21664;BME280;10993;52.510;13.456;2022-12-16T07:02:02;-25949.44;;;-5.82;100.00
21664;BME280;10993;52.510;13.456;2022-12-16T07:07:21;-25951.03;;;-5.77;100.00
21664;BME280;10993;52.510;13.456;2022-12-16T07:12:39;-25949.28;;;-5.82;100.00
21664;BME280;10993;52.510;13.456;2022-12-16T07:18:00;-25948.63;;;-5.84;100.00
21664;BME280;10993;52.510;13.456;2022-12-16T07:23:18;-25953.13;;;-5.70;100.00
21664;BME280;10993;52.510;13.456;2022-12-16T07:28:37;-25956.03;;;-5.61;100.00
21664;BME280;10993;52.510;13.456;2022-12-16T07:33:58;-25956.34;;;-5.60;100.00
21664;BME280;10993;52.510;13.456;2022-12-16T07:39:17;-25955.06;;;-5.64;100.00
21664;BME280;10993;52.510;13.456;2022-12-16T07:44:36;-25955.84;;;-5.61;100.00
21664;BME280;10993;52.510;13.456;2022-12-16T07:49:56;-25960.53;;;-5.46;100.00
21664;BME280;10993;52.510;13.456;2022-12-16T07:55:15;-25962.13;;;-5.41;100.00
21664;BME280;10993;52.510;13.456;2022-12-16T08:00:38;-25969.34;;;-5.18;100.00
21664;BME280;10993;52.510;13.456;2022-12-16T08:05:58;-25974.00;;;-5.03;100.00
21664;BME280;10993;52.510;13.456;2022-12-16T08:11:17;-25983.44;;;-4.73;100.00
21664;BME280;10993;52.510;13.456;2022-12-16T08:16:36;-26005.25;;;-4.03;100.00
21664;BME280;10993;52.510;13.456;2022-12-16T08:21:57;-26005.88;;;-4.00;100.00
21664;BME280;10993;52.510;13.456;2022-12-16T08:27:15;-25997.41;;;-4.28;100.00
21664;BME280;10993;52.510;13.456;2022-12-16T08:32:34;-26017.25;;;-3.64;100.00
21664;BME280;10993;52.510;13.456;2022-12-16T08:37:55;-26090.16;;;-1.29;100.00
21664;BME280;10993;52.510;13.456;2022-12-16T08:43:14;-26139.75;;;0.31;88.50
21664;BME280;10993;52.510;13.456;2022-12-16T08:48:34;-26101.63;;;-0.92;81.86
21664;BME280;10993;52.510;13.456;2022-12-16T08:53:54;-26142.13;;;0.39;85.14
21664;BME280;10993;52.510;13.456;2022-12-16T08:59:13;-26132.09;;;0.07;86.67
21664;BME280;10993;52.510;13.456;2022-12-16T09:04:32;-26101.97;;;-0.91;82.94
21664;BME280;10993;52.510;13.456;2022-12-16T09:09:52;-26112.16;;;-0.58;92.04
21664;BME280;10993;52.510;13.456;2022-12-16T09:15:11;-26142.28;;;0.40;79.19
21664;BME280;10993;52.510;13.456;2022-12-16T09:20:30;-26093.03;;;-1.20;83.46
21664;BME280;10993;52.510;13.456;2022-12-16T09:25:50;-26106.75;;;-0.75;90.95
21664;BME280;10993;52.510;13.456;2022-12-16T09:31:09;-26085.84;;;-1.43;88.49
21664;BME280;10993;52.510;13.456;2022-12-16T09:36:28;-26073.22;;;-1.83;92.12
21664;BME280;10993;52.510;13.456;2022-12-16T09:42:00;-26087.91;;;-1.36;92.39
21664;BME280;10993;52.510;13.456;2022-12-16T09:47:26;-26088.88;;;-1.33;92.44
21664;BME280;10993;52.510;13.456;2022-12-16T09:52:52;-26091.91;;;-1.23;92.33
21664;BME280;10993;52.510;13.456;2022-12-16T09:58:19;-26101.97;;;-0.91;89.43
21664;BME280;10993;52.510;13.456;2022-12-16T10:03:38;-26116.31;;;-0.44;89.25
21664;BME280;10993;52.510;13.456;2022-12-16T10:09:02;-26112.66;;;-0.56;90.21
21664;BME280;10993;52.510;13.456;2022-12-16T10:14:27;-26131.94;;;0.06;93.35
21664;BME280;10993;52.510;13.456;2022-12-16T10:19:55;-26148.66;;;0.60;86.69
21664;BME280;10993;52.510;13.456;2022-12-16T10:25:18;-26155.97;;;0.84;80.54
21664;BME280;10993;52.510;13.456;2022-12-16T10:30:39;-26162.03;;;1.04;84.47
21664;BME280;10993;52.510;13.456;2022-12-16T10:35:59;-26165.69;;;1.15;80.08
21664;BME280;10993;52.510;13.456;2022-12-16T10:41:18;-26165.38;;;1.14;82.91
21664;BME280;10993;52.510;13.456;2022-12-16T10:46:39;-26170.78;;;1.32;82.60
21664;BME280;10993;52.510;13.456;2022-12-16T10:51:58;-26178.72;;;1.58;77.65
21664;BME280;10993;52.510;13.456;2022-12-16T10:57:26;-26175.22;;;1.46;75.65
21664;BME280;10993;52.510;13.456;2022-12-16T11:02:47;-26175.88;;;1.48;80.55
21664;BME280;10993;52.510;13.456;2022-12-16T11:08:22;-26178.72;;;1.58;76.82
21664;BME280;10993;52.510;13.456;2022-12-16T11:13:42;-26172.38;;;1.37;75.43
21664;BME280;10993;52.510;13.456;2022-12-16T11:19:03;-26178.72;;;1.58;75.83
21664;BME280;10993;52.510;13.456;2022-12-16T11:24:23;-26187.78;;;1.87;74.75
21664;BME280;10993;52.510;13.456;2022-12-16T11:29:50;-26159.16;;;0.94;77.63
21664;BME280;10993;52.510;13.456;2022-12-16T11:35:13;-26169.66;;;1.28;77.66
21664;BME280;10993;52.510;13.456;2022-12-16T11:40:33;-26174.13;;;1.43;78.24
21664;BME280;10993;52.510;13.456;2022-12-16T11:45:53;-26167.75;;;1.22;78.19
21664;BME280;10993;52.510;13.456;2022-12-16T11:51:15;-26164.41;;;1.11;79.71
21664;BME280;10993;52.510;13.456;2022-12-16T11:56:37;-26146.28;;;0.53;81.82
21664;BME280;10993;52.510;13.456;2022-12-16T12:01:59;-26147.22;;;0.56;83.80
21664;BME280;10993;52.510;13.456;2022-12-16T12:07:25;-26167.13;;;1.20;81.78
21664;BME280;10993;52.510;13.456;2022-12-16T12:12:52;-26167.59;;;1.22;81.73
21664;BME280;10993;52.510;13.456;2022-12-16T12:18:21;-26163.31;;;1.08;82.42
21664;BME280;10993;52.510;13.456;2022-12-16T12:23:48;-26165.38;;;1.14;81.70
21664;BME280;10993;52.510;13.456;2022-12-16T12:29:19;-26154.72;;;0.80;85.01
21664;BME280;10993;52.510;13.456;2022-12-16T12:34:44;-26143.41;;;0.43;89.05
21664;BME280;10993;52.510;13.456;2022-12-16T12:40:18;-26146.75;;;0.54;88.93
21664;BME280;10993;52.510;13.456;2022-12-16T12:45:49;-26143.88;;;0.45;89.19
21664;BME280;10993;52.510;13.456;2022-12-16T12:51:14;-26132.25;;;0.07;90.78
21664;BME280;10993;52.510;13.456;2022-12-16T12:56:43;-26147.53;;;0.57;90.47
21664;BME280;10993;52.510;13.456;2022-12-16T13:02:11;-26148.19;;;0.59;90.82
21664;BME280;10993;52.510;13.456;2022-12-16T13:07:31;-26146.44;;;0.53;90.33
21664;BME280;10993;52.510;13.456;2022-12-16T13:18:37;-26129.72;;;-0.01;93.44
21664;BME280;10993;52.510;13.456;2022-12-16T13:23:56;-26126.19;;;-0.12;95.28
21664;BME280;10993;52.510;13.456;2022-12-16T13:29:32;-26122.38;;;-0.25;95.77
21664;BME280;10993;52.510;13.456;2022-12-16T13:34:59;-26124.13;;;-0.19;96.13
21664;BME280;10993;52.510;13.456;2022-12-16T13:40:21;-26123.34;;;-0.22;96.77
21664;BME280;10993;52.510;13.456;2022-12-16T13:45:42;-26123.81;;;-0.20;96.83
21664;BME280;10993;52.510;13.456;2022-12-16T13:51:03;-26121.91;;;-0.26;96.96
21664;BME280;10993;52.510;13.456;2022-12-16T13:56:25;-26126.53;;;-0.11;97.07
21664;BME280;10993;52.510;13.456;2022-12-16T14:01:53;-26118.88;;;-0.36;97.76
21664;BME280;10993;52.510;13.456;2022-12-16T14:07:16;-26118.22;;;-0.38;97.85
21664;BME280;10993;52.510;13.456;2022-12-16T14:12:56;-26112.81;;;-0.56;98.82
21664;BME280;10993;52.510;13.456;2022-12-16T14:18:28;-26114.72;;;-0.49;100.00
21664;BME280;10993;52.510;13.456;2022-12-16T14:23:53;-26116.78;;;-0.43;99.35
21664;BME280;10993;52.510;13.456;2022-12-16T14:29:20;-26110.09;;;-0.64;100.00
21664;BME280;10993;52.510;13.456;2022-12-16T14:34:40;-26117.28;;;-0.41;100.00
21664;BME280;10993;52.510;13.456;2022-12-16T14:40:00;-26109.63;;;-0.66;100.00
21664;BME280;10993;52.510;13.456;2022-12-16T14:45:30;-26107.88;;;-0.72;100.00
21664;BME280;10993;52.510;13.456;2022-12-16T14:50:50;-26106.44;;;-0.76;100.00
21664;BME280;10993;52.510;13.456;2022-12-16T14:56:17;-26094.00;;;-1.16;100.00
21664;BME280;10993;52.510;13.456;2022-12-16T15:01:36;-26101.31;;;-0.93;100.00
21664;BME280;10993;52.510;13.456;2022-12-16T15:06:55;-26097.19;;;-1.06;100.00
21664;BME280;10993;52.510;13.456;2022-12-16T15:12:18;-26098.28;;;-1.03;100.00
21664;BME280;10993;52.510;13.456;2022-12-16T15:17:44;-26097.19;;;-1.06;100.00
21664;BME280;10993;52.510;13.456;2022-12-16T15:23:11;-26094.31;;;-1.15;100.00
21664;BME280;10993;52.510;13.456;2022-12-16T15:28:44;-26084.41;;;-1.47;100.00
21664;BME280;10993;52.510;13.456;2022-12-16T15:34:20;-26091.91;;;-1.23;100.00
21664;BME280;10993;52.510;13.456;2022-12-16T15:39:40;-26089.50;;;-1.31;100.00
21664;BME280;10993;52.510;13.456;2022-12-16T15:45:00;-26088.72;;;-1.33;100.00
21664;BME280;10993;52.510;13.456;2022-12-16T15:50:21;-26092.72;;;-1.21;100.00
21664;BME280;10993;52.510;13.456;2022-12-16T15:55:41;-26086.66;;;-1.40;100.00
21664;BME280;10993;52.510;13.456;2022-12-16T16:01:01;-26084.41;;;-1.47;100.00
21664;BME280;10993;52.510;13.456;2022-12-16T16:06:23;-26082.34;;;-1.54;100.00
21664;BME280;10993;52.510;13.456;2022-12-16T16:11:42;-26079.94;;;-1.62;100.00
21664;BME280;10993;52.510;13.456;2022-12-16T16:17:12;-26080.41;;;-1.60;100.00
21664;BME280;10993;52.510;13.456;2022-12-16T16:22:37;-26085.22;;;-1.45;100.00
21664;BME280;10993;52.510;13.456;2022-12-16T16:27:56;-26077.69;;;-1.69;100.00
21664;BME280;10993;52.510;13.456;2022-12-16T16:33:16;-26077.69;;;-1.69;100.00
21664;BME280;10993;52.510;13.456;2022-12-16T16:38:35;-26074.81;;;-1.78;100.00
21664;BME280;10993;52.510;13.456;2022-12-16T16:43:54;-26077.53;;;-1.70;100.00
21664;BME280;10993;52.510;13.456;2022-12-16T16:49:19;-26079.63;;;-1.63;100.00
21664;BME280;10993;52.510;13.456;2022-12-16T16:54:38;-26077.06;;;-1.71;100.00
21664;BME280;10993;52.510;13.456;2022-12-16T16:59:57;-26078.66;;;-1.66;100.00
21664;BME280;10993;52.510;13.456;2022-12-16T17:05:18;-26085.69;;;-1.43;100.00
21664;BME280;10993;52.510;13.456;2022-12-16T17:10:37;-26083.44;;;-1.51;100.00
21664;BME280;10993;52.510;13.456;2022-12-16T17:15:55;-26086.00;;;-1.42;100.00
21664;BME280;10993;52.510;13.456;2022-12-16T17:21:16;-26085.84;;;-1.43;100.00
21664;BME280;10993;52.510;13.456;2022-12-16T17:26:39;-26080.56;;;-1.60;100.00
21664;BME280;10993;52.510;13.456;2022-12-16T17:31:58;-26080.41;;;-1.60;100.00
21664;BME280;10993;52.510;13.456;2022-12-16T17:37:18;-26068.91;;;-1.97;100.00
21664;BME280;10993;52.510;13.456;2022-12-16T17:42:37;-26068.91;;;-1.97;100.00
21664;BME280;10993;52.510;13.456;2022-12-16T17:47:56;-26062.69;;;-2.17;100.00
21664;BME280;10993;52.510;13.456;2022-12-16T17:53:16;-26070.03;;;-1.94;100.00
21664;BME280;10993;52.510;13.456;2022-12-16T17:58:37;-26075.63;;;-1.76;100.00
21664;BME280;10993;52.510;13.456;2022-12-16T18:03:56;-26073.53;;;-1.82;100.00
21664;BME280;10993;52.510;13.456;2022-12-16T18:09:16;-26071.00;;;-1.91;100.00
21664;BME280;10993;52.510;13.456;2022-12-16T18:14:35;-26076.09;;;-1.74;100.00
21664;BME280;10993;52.510;13.456;2022-12-16T18:19:54;-26082.00;;;-1.55;100.00
21664;BME280;10993;52.510;13.456;2022-12-16T18:25:34;-26078.66;;;-1.66;100.00
21664;BME280;10993;52.510;13.456;2022-12-16T18:30:53;-26076.75;;;-1.72;100.00
21664;BME280;10993;52.510;13.456;2022-12-16T18:36:12;-26078.50;;;-1.66;100.00
21664;BME280;10993;52.510;13.456;2022-12-16T18:41:40;-26082.50;;;-1.54;100.00
21664;BME280;10993;52.510;13.456;2022-12-16T18:46:59;-26083.44;;;-1.51;100.00
21664;BME280;10993;52.510;13.456;2022-12-16T18:52:19;-26084.56;;;-1.47;100.00
21664;BME280;10993;52.510;13.456;2022-12-16T18:57:39;-26074.50;;;-1.79;100.00
21664;BME280;10993;52.510;13.456;2022-12-16T19:02:58;-26078.81;;;-1.65;100.00
21664;BME280;10993;52.510;13.456;2022-12-16T19:08:17;-26067.63;;;-2.02;100.00
21664;BME280;10993;52.510;13.456;2022-12-16T19:13:37;-26077.69;;;-1.69;100.00
21664;BME280;10993;52.510;13.456;2022-12-16T19:18:56;-26081.22;;;-1.58;100.00
21664;BME280;10993;52.510;13.456;2022-12-16T19:24:15;-26077.06;;;-1.71;100.00
21664;BME280;10993;52.510;13.456;2022-12-16T19:29:35;-26082.50;;;-1.54;100.00
21664;BME280;10993;52.510;13.456;2022-12-16T19:34:54;-26081.84;;;-1.56;100.00
21664;BME280;10993;52.510;13.456;2022-12-16T19:40:13;-26079.94;;;-1.62;100.00
21664;BME280;10993;52.510;13.456;2022-12-16T19:45:34;-26086.00;;;-1.42;100.00
21664;BME280;10993;52.510;13.456;2022-12-16T19:50:55;-26083.63;;;-1.50;100.00
21664;BME280;10993;52.510;13.456;2022-12-16T19:56:14;-26089.50;;;-1.31;100.00
21664;BME280;10993;52.510;13.456;2022-12-16T20:01:35;-26093.66;;;-1.18;100.00
21664;BME280;10993;52.510;13.456;2022-12-16T20:06:54;-26090.31;;;-1.28;100.00
21664;BME280;10993;52.510;13.456;2022-12-16T20:12:13;-26095.41;;;-1.12;100.00
21664;BME280;10993;52.510;13.456;2022-12-16T20:17:33;-26092.38;;;-1.22;100.00
21664;BME280;10993;52.510;13.456;2022-12-16T20:23:09;-26093.19;;;-1.19;100.00
21664;BME280;10993;52.510;13.456;2022-12-16T20:28:28;-26091.75;;;-1.24;100.00
21664;BME280;10993;52.510;13.456;2022-12-16T20:33:52;-26093.19;;;-1.19;100.00
21664;BME280;10993;52.510;13.456;2022-12-16T20:39:12;-26095.41;;;-1.12;100.00
21664;BME280;10993;52.510;13.456;2022-12-16T20:44:31;-26095.25;;;-1.12;100.00
21664;BME280;10993;52.510;13.456;2022-12-16T20:49:51;-26090.16;;;-1.29;100.00
21664;BME280;10993;52.510;13.456;2022-12-16T20:55:10;-26098.13;;;-1.03;100.00
21664;BME280;10993;52.510;13.456;2022-12-16T21:00:29;-26090.63;;;-1.27;100.00
21664;BME280;10993;52.510;13.456;2022-12-16T21:05:49;-26092.06;;;-1.23;100.00
21664;BME280;10993;52.510;13.456;2022-12-16T21:11:08;-26085.69;;;-1.43;100.00
21664;BME280;10993;52.510;13.456;2022-12-16T21:16:27;-26062.69;;;-2.17;100.00
21664;BME280;10993;52.510;13.456;2022-12-16T21:21:47;-26097.81;;;-1.04;100.00
21664;BME280;10993;52.510;13.456;2022-12-16T21:27:06;-26100.38;;;-0.96;100.00
21664;BME280;10993;52.510;13.456;2022-12-16T21:32:25;-26096.53;;;-1.08;100.00
21664;BME280;10993;52.510;13.456;2022-12-16T21:37:45;-26086.97;;;-1.39;100.00
21664;BME280;10993;52.510;13.456;2022-12-16T21:43:21;-26085.69;;;-1.43;100.00
21664;BME280;10993;52.510;13.456;2022-12-16T21:48:39;-26078.03;;;-1.68;100.00
21664;BME280;10993;52.510;13.456;2022-12-16T21:54:03;-26097.81;;;-1.04;100.00
21664;BME280;10993;52.510;13.456;2022-12-16T21:59:22;-26099.88;;;-0.97;100.00
21664;BME280;10993;52.510;13.456;2022-12-16T22:04:41;-26101.00;;;-0.94;100.00
21664;BME280;10993;52.510;13.456;2022-12-16T22:10:01;-26092.53;;;-1.21;100.00
21664;BME280;10993;52.510;13.456;2022-12-16T22:15:21;-26084.72;;;-1.46;100.00
21664;BME280;10993;52.510;13.456;2022-12-16T22:20:40;-26092.88;;;-1.20;100.00
21664;BME280;10993;52.510;13.456;2022-12-16T22:26:00;-26089.19;;;-1.32;100.00
21664;BME280;10993;52.510;13.456;2022-12-16T22:31:19;-26092.72;;;-1.21;100.00
21664;BME280;10993;52.510;13.456;2022-12-16T22:36:38;-26094.78;;;-1.14;100.00
21664;BME280;10993;52.510;13.456;2022-12-16T22:41:58;-26094.94;;;-1.13;100.00
21664;BME280;10993;52.510;13.456;2022-12-16T22:47:17;-26096.22;;;-1.09;100.00
21664;BME280;10993;52.510;13.456;2022-12-16T22:52:36;-26094.94;;;-1.13;100.00
21664;BME280;10993;52.510;13.456;2022-12-16T22:58:13;-26099.41;;;-0.99;100.00
21664;BME280;10993;52.510;13.456;2022-12-16T23:03:33;-26097.34;;;-1.06;100.00
21664;BME280;10993;52.510;13.456;2022-12-16T23:08:52;-26100.06;;;-0.97;100.00
21664;BME280;10993;52.510;13.456;2022-12-16T23:14:12;-26098.13;;;-1.03;100.00
21664;BME280;10993;52.510;13.456;2022-12-16T23:19:31;-26095.09;;;-1.13;100.00
21664;BME280;10993;52.510;13.456;2022-12-16T23:24:50;-26099.41;;;-0.99;100.00
21664;BME280;10993;52.510;13.456;2022-12-16T23:30:10;-26097.97;;;-1.04;100.00
21664;BME280;10993;52.510;13.456;2022-12-16T23:35:29;-26096.22;;;-1.09;100.00
21664;BME280;10993;52.510;13.456;2022-12-16T23:40:54;-26099.41;;;-0.99;100.00
21664;BME280;10993;52.510;13.456;2022-12-16T23:46:14;-26094.94;;;-1.13;100.00
21664;BME280;10993;52.510;13.456;2022-12-16T23:51:33;-26099.25;;;-0.99;100.00
21664;BME280;10993;52.510;13.456;2022-12-16T23:56:52;-26102.13;;;-0.90;100.00
